Time;durP1;ratioP1;P1;durP2;ratioP2;P2;SDS_P1;SDS_P2;PMS_P1;PMS_P2;Temp;Humidity;BMP_temperature;BMP_pressure;BME280_temperature;BME280_humidity;BME280_pressure;Samples;Min_cycle;Max_cycle;Signal;HPM_P1;HPM_P2
2022/10/07 00:00:33;;;;;;;;;;;;;;;16.35;76.87;101740.94;5029745;28;1791;-65
2022/10/07 00:02:58;;;;;;;;;;;;;;;16.34;77.06;101738.44;5031572;28;1946;-65
2022/10/07 00:05:23;;;;;;;;;;;;;;;16.34;77.17;101742.03;5030921;28;1796;-64
2022/10/07 00:07:48;;;;;;;;;;;;;;;16.34;76.59;101744.81;5032143;28;1736;-65
2022/10/07 00:10:14;;;;;;;;;;;;;;;16.34;76.55;101738.44;5030826;28;1824;-65
2022/10/07 00:12:39;;;;;;;;;;;;;;;16.32;77.02;101727.72;5029624;28;1797;-64
2022/10/07 00:15:04;;;;;;;;;;;;;;;16.33;77.11;101728.53;5027883;28;1902;-65
2022/10/07 00:17:30;;;;;;;;;;;;;;;16.33;77.16;101725.78;5031405;28;1751;-65
2022/10/07 00:19:56;;;;;;;;;;;;;;;16.32;77.16;101724.13;5025706;28;1519;-65
2022/10/07 00:22:22;;;;;;;;;;;;;;;16.31;76.94;101728.81;5030476;28;2043;-64
2022/10/07 00:24:47;;;;;;;;;;;;;;;16.31;77.19;101726.06;5032745;28;1657;-65
2022/10/07 00:27:12;;;;;;;;;;;;;;;16.32;77.04;101724.13;5029748;28;2057;-65
2022/10/07 00:29:37;;;;;;;;;;;;;;;16.31;77.10;101716.94;5024943;28;1818;-64
2022/10/07 00:32:02;;;;;;;;;;;;;;;16.31;77.55;101716.94;5028677;28;2165;-65
2022/10/07 00:34:28;;;;;;;;;;;;;;;16.30;77.25;101707.00;5030567;28;2272;-64
2022/10/07 00:36:53;;;;;;;;;;;;;;;16.32;77.15;101710.31;5030779;28;2153;-66
2022/10/07 00:39:18;;;;;;;;;;;;;;;16.31;76.87;101708.66;5030805;28;2021;-65
2022/10/07 00:41:47;;;;;;;;;;;;;;;16.31;76.73;101711.41;5030628;28;1816;-65
2022/10/07 00:44:33;;;;;;;;;;;;;;;16.31;77.48;101700.34;5031222;28;1988;-64
2022/10/07 00:46:59;;;;;;;;;;;;;;;16.30;77.69;101690.41;5024629;28;1854;-64
2022/10/07 00:49:27;;;;;;;;;;;;;;;16.30;77.55;101690.41;5023137;28;1879;-65
2022/10/07 00:51:52;;;;;;;;;;;;;;;16.30;77.34;101690.41;5021729;28;1688;-65
2022/10/07 00:54:18;;;;;;;;;;;;;;;16.28;77.73;101687.94;5023954;28;1959;-65
2022/10/07 00:56:44;;;;;;;;;;;;;;;16.28;77.79;101687.94;5028233;28;1812;-65
2022/10/07 00:59:11;;;;;;;;;;;;;;;16.28;77.71;101679.66;5030844;28;1693;-65
2022/10/07 01:01:36;;;;;;;;;;;;;;;16.28;77.51;101682.41;5027779;28;1965;-65
2022/10/07 01:04:01;;;;;;;;;;;;;;;16.27;77.64;101673.31;5026717;28;2047;-65
2022/10/07 01:06:26;;;;;;;;;;;;;;;16.28;77.59;101663.91;5031051;28;1771;-65
2022/10/07 01:08:52;;;;;;;;;;;;;;;16.27;77.78;101669.72;5030502;28;1704;-65
2022/10/07 01:11:20;;;;;;;;;;;;;;;16.25;77.80;101670.00;5029739;28;2403;-65
2022/10/07 01:13:55;;;;;;;;;;;;;;;16.25;77.77;101666.41;5030828;28;1965;-65
2022/10/07 01:16:29;;;;;;;;;;;;;;;16.24;77.98;101665.63;5030088;28;2111;-65
2022/10/07 01:19:00;;;;;;;;;;;;;;;16.23;77.37;101660.38;5020004;28;1912;-65
2022/10/07 01:21:33;;;;;;;;;;;;;;;16.22;77.36;101667.00;5029125;28;2187;-64
2022/10/07 01:24:04;;;;;;;;;;;;;;;16.22;77.86;101661.47;5027640;28;1975;-65
2022/10/07 01:26:54;;;;;;;;;;;;;;;16.21;77.93;101652.38;5033656;28;1737;-65
2022/10/07 01:29:24;;;;;;;;;;;;;;;16.20;77.86;101647.94;5022049;28;2112;-64
2022/10/07 01:32:03;;;;;;;;;;;;;;;16.20;77.34;101650.72;5033876;28;1844;-65
2022/10/07 01:34:29;;;;;;;;;;;;;;;16.19;77.42;101646.31;5034943;28;1897;-65
2022/10/07 01:36:55;;;;;;;;;;;;;;;16.19;77.59;101648.25;5028376;28;2117;-64
2022/10/07 01:39:23;;;;;;;;;;;;;;;16.19;77.55;101645.47;5030096;28;1950;-65
2022/10/07 01:41:49;;;;;;;;;;;;;;;16.18;77.80;101643.81;5026809;28;2002;-65
2022/10/07 01:44:14;;;;;;;;;;;;;;;16.17;77.46;101643.00;5034818;28;2091;-65
2022/10/07 01:46:41;;;;;;;;;;;;;;;16.18;77.70;101641.06;5031205;28;1861;-64
2022/10/07 01:49:08;;;;;;;;;;;;;;;16.17;77.62;101631.13;5033201;28;1955;-65
2022/10/07 01:51:35;;;;;;;;;;;;;;;16.17;77.78;101628.34;5032024;28;1915;-65
2022/10/07 01:54:06;;;;;;;;;;;;;;;16.16;77.91;101623.97;5034708;28;1879;-65
2022/10/07 01:56:31;;;;;;;;;;;;;;;16.16;77.56;101623.97;5029685;28;1780;-64
2022/10/07 01:59:12;;;;;;;;;;;;;;;16.15;77.80;101619.56;5034375;28;2087;-65
2022/10/07 02:01:51;;;;;;;;;;;;;;;16.14;77.39;101617.91;5034840;28;1768;-65
2022/10/07 02:04:26;;;;;;;;;;;;;;;16.13;77.62;101617.09;5032603;28;1903;-65
2022/10/07 02:06:58;;;;;;;;;;;;;;;16.13;77.56;101616.25;5025070;28;1928;-65
2022/10/07 02:09:32;;;;;;;;;;;;;;;16.13;77.68;101603.28;5033989;28;1964;-65
2022/10/07 02:12:12;;;;;;;;;;;;;;;16.12;77.85;101600.78;5025897;28;1881;-65
2022/10/07 02:14:43;;;;;;;;;;;;;;;16.12;77.93;101604.38;5033315;28;1912;-65
2022/10/07 02:17:10;;;;;;;;;;;;;;;16.11;77.60;101602.72;5033371;28;1820;-65
2022/10/07 02:19:39;;;;;;;;;;;;;;;16.10;78.08;101603.84;5024544;28;1981;-65
2022/10/07 02:22:05;;;;;;;;;;;;;;;16.10;77.61;101601.09;5026074;28;1889;-65
2022/10/07 02:24:32;;;;;;;;;;;;;;;16.10;77.65;101598.31;5022958;28;1930;-64
2022/10/07 02:27:00;;;;;;;;;;;;;;;16.09;77.92;101587.56;5022460;28;2040;-65
2022/10/07 02:29:29;;;;;;;;;;;;;;;16.08;78.11;101583.97;5026391;28;1796;-65
2022/10/07 02:31:57;;;;;;;;;;;;;;;16.07;78.05;101590.63;5032441;28;2690;-65
2022/10/07 02:34:23;;;;;;;;;;;;;;;16.07;77.83;101596.16;5031024;28;2287;-65
2022/10/07 02:37:00;;;;;;;;;;;;;;;16.07;77.77;101587.88;5026575;28;1976;-65
2022/10/07 02:39:26;;;;;;;;;;;;;;;16.08;77.37;101585.91;5033928;28;1431;-65
2022/10/07 02:41:59;;;;;;;;;;;;;;;16.07;77.87;101579.59;5020945;28;2260;-65
2022/10/07 02:44:29;;;;;;;;;;;;;;;16.06;78.06;101577.94;5032567;28;1799;-65
2022/10/07 02:46:57;;;;;;;;;;;;;;;16.05;78.15;101576.28;5032267;28;2239;-65
2022/10/07 02:49:23;;;;;;;;;;;;;;;16.07;77.92;101579.59;5026009;28;1952;-65
2022/10/07 02:51:54;;;;;;;;;;;;;;;16.06;77.93;101575.19;5031272;28;1881;-65
2022/10/07 02:54:23;;;;;;;;;;;;;;;16.05;78.16;101568.00;5031838;28;1967;-65
2022/10/07 02:56:48;;;;;;;;;;;;;;;16.05;78.03;101576.28;5030629;28;1893;-65
2022/10/07 02:59:15;;;;;;;;;;;;;;;16.05;78.15;101562.47;5033384;28;1811;-65
2022/10/07 03:01:44;;;;;;;;;;;;;;;16.05;78.05;101572.69;5032567;28;1901;-65
2022/10/07 03:04:09;;;;;;;;;;;;;;;16.06;78.17;101563.31;5032770;28;2237;-65
2022/10/07 03:06:35;;;;;;;;;;;;;;;16.06;77.98;101557.78;5033195;28;2077;-65
2022/10/07 03:09:00;;;;;;;;;;;;;;;16.05;78.27;101562.47;5033357;28;1907;-64
2022/10/07 03:11:25;;;;;;;;;;;;;;;16.05;78.51;101562.47;5030981;28;2239;-63
2022/10/07 03:13:50;;;;;;;;;;;;;;;16.05;78.17;101556.94;5032738;28;1973;-65
2022/10/07 03:16:15;;;;;;;;;;;;;;;16.06;77.98;101557.78;5032898;28;1886;-64
2022/10/07 03:18:41;;;;;;;;;;;;;;;16.05;78.25;101567.19;5033424;28;1858;-65
2022/10/07 03:21:06;;;;;;;;;;;;;;;16.04;78.07;101562.75;5025278;28;2132;-64
2022/10/07 03:23:32;;;;;;;;;;;;;;;16.03;78.23;101559.19;5029118;28;1890;-65
2022/10/07 03:25:57;;;;;;;;;;;;;;;16.02;78.58;101559.47;5032785;28;2195;-65
2022/10/07 03:28:23;;;;;;;;;;;;;;;16.01;78.30;101555.88;5031429;28;1934;-65
2022/10/07 03:30:49;;;;;;;;;;;;;;;16.01;78.58;101555.88;5030376;28;1917;-65
2022/10/07 03:33:15;;;;;;;;;;;;;;;16.01;78.30;101555.88;5031680;28;2091;-65
2022/10/07 03:35:40;;;;;;;;;;;;;;;16.02;78.30;101548.41;5027806;28;2350;-64
2022/10/07 03:38:07;;;;;;;;;;;;;;;16.01;78.46;101547.59;5026339;28;1921;-65
2022/10/07 03:40:33;;;;;;;;;;;;;;;16.00;78.87;101540.41;5030612;28;2263;-65
2022/10/07 03:42:58;;;;;;;;;;;;;;;16.00;78.37;101543.19;5030923;28;1828;-65
2022/10/07 03:45:23;;;;;;;;;;;;;;;16.00;78.64;101542.34;5031498;28;2279;-65
2022/10/07 03:47:48;;;;;;;;;;;;;;;15.99;78.58;101538.75;5029439;28;2027;-65
2022/10/07 03:50:13;;;;;;;;;;;;;;;15.99;78.77;101543.50;5021128;28;1847;-65
2022/10/07 03:52:38;;;;;;;;;;;;;;;15.99;78.46;101535.22;5031365;28;1881;-64
2022/10/07 03:55:04;;;;;;;;;;;;;;;15.99;78.79;101535.22;5032287;28;1886;-65
2022/10/07 04:00:13;;;;;;;;;;;;;;;15.97;78.45;101529.97;5029150;28;1925;-64
2022/10/07 04:02:38;;;;;;;;;;;;;;;15.97;78.73;101527.22;5023608;28;1653;-67
2022/10/07 04:05:03;;;;;;;;;;;;;;;15.97;78.58;101518.09;5027752;28;1673;-64
2022/10/07 04:07:28;;;;;;;;;;;;;;;15.95;78.77;101523.91;5023730;28;1809;-65
2022/10/07 04:09:54;;;;;;;;;;;;;;;15.96;78.88;101519.22;5024631;28;1591;-64
2022/10/07 04:12:19;;;;;;;;;;;;;;;15.96;78.79;101517.28;5030623;28;1911;-65
2022/10/07 04:14:44;;;;;;;;;;;;;;;15.96;78.33;101508.16;5029435;28;1902;-65
2022/10/07 04:17:09;;;;;;;;;;;;;;;15.96;78.51;101509.00;5026824;28;1724;-64
2022/10/07 04:19:34;;;;;;;;;;;;;;;15.94;78.59;101504.88;5024160;28;1932;-65
2022/10/07 04:22:00;;;;;;;;;;;;;;;15.94;78.44;101505.69;5029915;28;1702;-64
2022/10/07 04:24:25;;;;;;;;;;;;;;;15.94;78.37;101505.69;5024810;28;1590;-66
2022/10/07 04:26:50;;;;;;;;;;;;;;;15.93;78.74;101501.28;5022743;28;1595;-65
2022/10/07 04:29:15;;;;;;;;;;;;;;;15.94;78.45;101497.41;5031546;28;1825;-66
2022/10/07 04:31:40;;;;;;;;;;;;;;;15.93;78.73;101501.28;5029509;28;1799;-66
2022/10/07 04:34:06;;;;;;;;;;;;;;;15.61;78.49;101443.91;5031505;28;1965;-66
2022/10/07 04:36:31;;;;;;;;;;;;;;;15.92;78.59;101494.09;5028168;28;1826;-65
2022/10/07 04:38:56;;;;;;;;;;;;;;;15.91;78.56;101495.22;5020194;28;1733;-65
2022/10/07 04:41:21;;;;;;;;;;;;;;;15.91;78.91;101511.00;5027077;28;1849;-65
2022/10/07 04:43:50;;;;;;;;;;;;;;;15.92;79.04;101499.63;5022273;28;1769;-65
2022/10/07 04:46:15;;;;;;;;;;;;;;;15.93;78.84;101500.44;5031537;28;1665;-65
2022/10/07 04:48:44;;;;;;;;;;;;;;;15.93;78.81;101498.53;5024650;28;1749;-65
2022/10/07 04:51:09;;;;;;;;;;;;;;;15.94;78.58;101499.34;5032127;28;1704;-65
2022/10/07 04:53:35;;;;;;;;;;;;;;;15.92;79.32;101496.88;5031310;28;2019;-65
2022/10/07 04:56:01;;;;;;;;;;;;;;;15.92;78.76;101494.09;5029502;28;1413;-65
2022/10/07 04:58:27;;;;;;;;;;;;;;;15.91;78.51;101497.97;5013410;28;1067;-65
2022/10/07 05:00:53;;;;;;;;;;;;;;;15.92;79.04;101487.75;5019645;28;1699;-65
2022/10/07 05:03:21;;;;;;;;;;;;;;;15.92;78.73;101485.81;5035659;28;1637;-65
2022/10/07 05:05:47;;;;;;;;;;;;;;;15.92;79.07;101485.81;5036219;28;1242;-65
2022/10/07 05:08:13;;;;;;;;;;;;;;;15.92;78.66;101479.47;5036625;28;855;-65
2022/10/07 05:10:39;;;;;;;;;;;;;;;15.91;78.87;101483.38;5036190;28;1587;-65
2022/10/07 05:13:05;;;;;;;;;;;;;;;15.91;78.84;101484.19;5029982;28;1779;-65
2022/10/07 05:15:31;;;;;;;;;;;;;;;15.89;78.93;101472.63;5033514;28;1963;-66
2022/10/07 05:17:56;;;;;;;;;;;;;;;15.91;78.82;101477.84;5036394;28;817;-65
2022/10/07 05:20:21;;;;;;;;;;;;;;;15.91;78.90;101477.84;5036677;28;1594;-65
2022/10/07 05:22:46;;;;;;;;;;;;;;;15.89;79.07;101472.63;5034803;28;1888;-65
2022/10/07 05:25:11;;;;;;;;;;;;;;;15.91;79.02;101475.09;5019786;28;1639;-65
2022/10/07 05:27:36;;;;;;;;;;;;;;;15.89;78.87;101469.88;5013438;28;1320;-65
2022/10/07 05:30:02;;;;;;;;;;;;;;;15.88;78.92;101468.22;5029576;28;1260;-65
2022/10/07 05:32:27;;;;;;;;;;;;;;;15.89;78.97;101467.09;5033940;28;1902;-66
2022/10/07 05:34:53;;;;;;;;;;;;;;;15.88;78.79;101466.28;5023146;28;1981;-65
2022/10/07 05:37:18;;;;;;;;;;;;;;;15.89;78.55;101461.56;5015072;28;774;-65
2022/10/07 05:39:43;;;;;;;;;;;;;;;15.88;79.12;101460.75;5015947;28;1229;-65
2022/10/07 05:42:08;;;;;;;;;;;;;;;15.88;78.80;101459.94;5023697;28;1975;-65
2022/10/07 05:44:34;;;;;;;;;;;;;;;15.89;78.96;101461.56;5026487;28;1636;-65
2022/10/07 05:47:00;;;;;;;;;;;;;;;15.90;78.80;101466.00;5029083;28;1049;-65
2022/10/07 05:49:26;;;;;;;;;;;;;;;15.88;78.96;101457.16;5034214;28;1323;-65
2022/10/07 05:51:51;;;;;;;;;;;;;;;15.88;78.97;101455.22;5034099;28;1690;-65
2022/10/07 05:54:17;;;;;;;;;;;;;;;15.88;79.06;101459.94;5028649;28;1973;-65
2022/10/07 05:56:42;;;;;;;;;;;;;;;15.87;78.88;101455.53;5015746;28;861;-65
2022/10/07 05:59:07;;;;;;;;;;;;;;;15.87;79.33;101444.47;5015408;28;1328;-65
2022/10/07 06:01:32;;;;;;;;;;;;;;;15.91;79.03;101448.28;5022514;28;1941;-66
2022/10/07 06:03:57;;;;;;;;;;;;;;;15.91;79.02;101441.97;5028177;28;1814;-65
2022/10/07 06:06:23;;;;;;;;;;;;;;;15.92;78.82;101454.63;5022903;28;1984;-65
2022/10/07 06:08:48;;;;;;;;;;;;;;;15.91;78.83;101442.75;5025054;28;2020;-65
2022/10/07 06:13:58;;;;;;;;;;;;;;;15.92;79.10;101447.16;5033775;28;1949;-65
2022/10/07 06:16:23;;;;;;;;;;;;;;;15.91;78.77;101453.00;5026457;28;1312;-65
2022/10/07 06:18:51;;;;;;;;;;;;;;;15.90;78.73;101446.66;5016108;28;2001;-65
2022/10/07 06:21:16;;;;;;;;;;;;;;;15.88;78.78;101438.66;5030528;28;1541;-65
2022/10/07 06:23:41;;;;;;;;;;;;;;;15.88;78.74;101444.19;5021610;28;1987;-65
2022/10/07 06:26:08;;;;;;;;;;;;;;;15.89;78.86;101445.00;5017215;28;1346;-65
2022/10/07 06:28:35;;;;;;;;;;;;;;;15.88;78.77;101449.72;5017965;28;1705;-65
2022/10/07 06:31:04;;;;;;;;;;;;;;;15.87;78.85;101444.47;5027924;28;1788;-66
2022/10/07 06:33:29;;;;;;;;;;;;;;;15.87;78.87;101447.25;5030216;28;1902;-65
2022/10/07 06:35:57;;;;;;;;;;;;;;;15.87;78.80;101445.31;5026580;28;1593;-66
2022/10/07 06:38:22;;;;;;;;;;;;;;;15.86;78.77;101440.06;5029587;28;1755;-65
2022/10/07 06:40:57;;;;;;;;;;;;;;;15.86;78.49;101453.88;5023921;28;1797;-65
2022/10/07 06:43:23;;;;;;;;;;;;;;;15.85;78.85;101449.47;5026175;28;1965;-65
2022/10/07 06:45:48;;;;;;;;;;;;;;;15.85;79.00;101452.22;5025938;28;1665;-65
2022/10/07 06:48:13;;;;;;;;;;;;;;;15.84;78.71;101443.13;5027309;28;1593;-65
2022/10/07 06:50:38;;;;;;;;;;;;;;;15.84;78.62;101456.09;5025957;28;1563;-66
2022/10/07 06:53:03;;;;;;;;;;;;;;;15.85;78.82;101453.03;5028026;28;1913;-65
2022/10/07 06:55:29;;;;;;;;;;;;;;;15.85;78.75;101450.28;5028388;28;1894;-66
2022/10/07 06:57:54;;;;;;;;;;;;;;;15.84;78.82;101437.59;5023460;28;1699;-65
2022/10/07 07:00:19;;;;;;;;;;;;;;;15.85;78.72;101443.94;5023183;28;1973;-66
2022/10/07 07:02:44;;;;;;;;;;;;;;;15.84;78.67;101445.06;5027158;28;1653;-66
2022/10/07 07:05:12;;;;;;;;;;;;;;;15.84;79.22;101443.13;5030427;28;1879;-66
2022/10/07 07:07:37;;;;;;;;;;;;;;;15.84;78.62;101443.13;5022227;28;1633;-65
2022/10/07 07:10:02;;;;;;;;;;;;;;;15.84;78.96;101445.06;5022225;28;1697;-65
2022/10/07 07:12:27;;;;;;;;;;;;;;;15.84;78.72;101436.78;5026091;28;2046;-66
2022/10/07 07:14:52;;;;;;;;;;;;;;;15.84;78.65;101442.28;5023349;28;1973;-65
2022/10/07 07:17:18;;;;;;;;;;;;;;;15.84;78.67;101436.78;5028916;28;1380;-65
2022/10/07 07:19:43;;;;;;;;;;;;;;;15.83;78.58;101437.88;5023914;28;1764;-66
2022/10/07 07:22:08;;;;;;;;;;;;;;;15.84;78.65;101431.25;5016421;28;1998;-65
2022/10/07 07:24:33;;;;;;;;;;;;;;;15.83;78.86;101435.94;5032964;28;1523;-65
2022/10/07 07:26:59;;;;;;;;;;;;;;;15.84;78.78;101434.00;5014001;28;1917;-65
2022/10/07 07:29:25;;;;;;;;;;;;;;;15.83;78.57;101432.34;5026178;28;1941;-65
2022/10/07 07:31:50;;;;;;;;;;;;;;;15.84;78.91;101434.00;5026339;28;1881;-66
2022/10/07 07:34:15;;;;;;;;;;;;;;;15.83;78.77;101429.59;5031987;28;1898;-66
2022/10/07 07:36:48;;;;;;;;;;;;;;;15.83;78.31;101430.41;5025297;28;1591;-66
2022/10/07 07:39:15;;;;;;;;;;;;;;;15.84;78.80;101431.25;5032424;28;1981;-65
2022/10/07 07:41:45;;;;;;;;;;;;;;;15.85;78.68;101419.09;5031550;28;1921;-65
2022/10/07 07:44:11;;;;;;;;;;;;;;;15.84;78.64;101426.53;5028520;28;1983;-66
2022/10/07 07:46:38;;;;;;;;;;;;;;;15.85;78.81;101422.69;5027521;28;2117;-65
2022/10/07 07:49:04;;;;;;;;;;;;;;;15.86;78.92;101426.25;5029013;28;1993;-67
2022/10/07 07:51:29;;;;;;;;;;;;;;;15.82;79.03;101430.75;5032958;28;1773;-66
2022/10/07 07:53:54;;;;;;;;;;;;;;;15.75;78.88;101422.78;5027670;28;1890;-66
2022/10/07 07:56:20;;;;;;;;;;;;;;;15.70;79.16;101419.25;5029188;28;1840;-66
2022/10/07 07:58:45;;;;;;;;;;;;;;;15.66;79.62;101415.44;5019075;28;1663;-66
2022/10/07 08:01:12;;;;;;;;;;;;;;;15.62;79.37;101411.63;5030911;28;1889;-66
2022/10/07 08:03:38;;;;;;;;;;;;;;;15.60;79.53;101405.56;5024664;28;1863;-66
2022/10/07 08:06:04;;;;;;;;;;;;;;;15.57;78.86;101411.69;5023622;28;1711;-66
2022/10/07 08:08:30;;;;;;;;;;;;;;;15.45;77.12;101407.34;5031124;28;1840;-66
2022/10/07 08:10:56;;;;;;;;;;;;;;;15.31;76.29;101411.06;5027082;28;1754;-66
2022/10/07 08:13:21;;;;;;;;;;;;;;;15.18;75.99;101401.53;5031352;28;2041;-66
2022/10/07 08:15:46;;;;;;;;;;;;;;;15.08;76.33;101410.69;5029403;28;1961;-66
2022/10/07 08:18:11;;;;;;;;;;;;;;;15.04;76.04;101408.81;5032376;28;1881;-66
2022/10/07 08:20:36;;;;;;;;;;;;;;;14.98;75.50;101407.19;5027395;28;2146;-66
2022/10/07 08:23:05;;;;;;;;;;;;;;;14.93;75.23;101410.84;5029650;28;1903;-66
2022/10/07 08:25:30;;;;;;;;;;;;;;;14.91;75.41;101398.44;5022285;28;1506;-66
2022/10/07 08:27:55;;;;;;;;;;;;;;;14.88;75.30;101399.03;5031370;28;1841;-66
2022/10/07 08:30:20;;;;;;;;;;;;;;;14.85;75.30;101403.19;5033092;28;1585;-66
2022/10/07 08:32:45;;;;;;;;;;;;;;;14.83;74.07;101396.28;5031755;28;1773;-66
2022/10/07 08:35:11;;;;;;;;;;;;;;;14.81;74.91;101390.25;5028948;28;1963;-66
2022/10/07 08:37:36;;;;;;;;;;;;;;;14.80;74.81;101391.38;5035174;28;1174;-66
2022/10/07 08:40:01;;;;;;;;;;;;;;;14.77;74.24;101385.31;5036936;28;1213;-66
2022/10/07 08:42:32;;;;;;;;;;;;;;;14.76;73.78;101386.44;5036313;28;1863;-66
2022/10/07 08:44:58;;;;;;;;;;;;;;;14.74;74.36;101377.63;5025527;28;1503;-66
2022/10/07 08:47:37;;;;;;;;;;;;;;;14.74;73.42;101380.38;5016958;28;881;-66
2022/10/07 08:50:11;;;;;;;;;;;;;;;14.73;74.00;101375.97;5017060;28;1272;-66
2022/10/07 08:52:36;;;;;;;;;;;;;;;14.74;73.58;101372.09;5018521;28;1566;-66
2022/10/07 08:55:03;;;;;;;;;;;;;;;14.72;73.80;101371.56;5036823;28;1897;-66
2022/10/07 08:57:44;;;;;;;;;;;;;;;14.72;73.96;101363.28;5019412;28;1541;-66
2022/10/07 09:00:11;;;;;;;;;;;;;;;14.72;73.25;101366.03;5016844;28;1277;-66
2022/10/07 09:02:43;;;;;;;;;;;;;;;14.71;73.94;101356.16;5017691;28;1817;-66
2022/10/07 09:05:23;;;;;;;;;;;;;;;14.71;73.61;101358.09;5036722;28;1525;-66
2022/10/07 09:07:55;;;;;;;;;;;;;;;14.71;73.27;101360.84;5022525;28;1578;-66
2022/10/07 09:10:41;;;;;;;;;;;;;;;14.71;73.91;101349.81;5035243;28;1682;-66
2022/10/07 09:13:14;;;;;;;;;;;;;;;14.86;74.65;101357.97;5030447;28;1866;-69
2022/10/07 09:15:59;;;;;;;;;;;;;;;15.05;74.75;101345.13;5032951;28;1898;-69
2022/10/07 09:18:27;;;;;;;;;;;;;;;15.28;74.66;101338.00;5030171;28;1965;-69
2022/10/07 09:20:53;;;;;;;;;;;;;;;15.48;74.53;101343.28;5027919;28;1946;-69
2022/10/07 09:23:19;;;;;;;;;;;;;;;15.69;74.51;101332.88;5030924;28;1989;-69
2022/10/07 09:25:44;;;;;;;;;;;;;;;15.88;74.44;101330.16;5028463;28;1694;-69
2022/10/07 09:28:15;;;;;;;;;;;;;;;16.06;73.95;101325.78;5034172;28;1862;-69
2022/10/07 09:30:41;;;;;;;;;;;;;;;16.22;73.41;101327.22;5028104;28;1331;-69
2022/10/07 09:33:17;;;;;;;;;;;;;;;16.36;73.44;101319.81;5027007;28;1967;-70
2022/10/07 09:35:47;;;;;;;;;;;;;;;16.50;73.31;101325.44;5033138;28;1894;-70
2022/10/07 09:38:14;;;;;;;;;;;;;;;16.61;73.46;101318.63;5033753;28;1966;-70
2022/10/07 09:43:23;;;;;;;;;;;;;;;16.83;73.30;101318.84;5030166;28;2123;-69
2022/10/07 09:45:49;;;;;;;;;;;;;;;16.94;72.75;101311.97;5032475;28;1783;-70
2022/10/07 09:48:20;;;;;;;;;;;;;;;17.03;73.12;101310.16;5029817;28;1857;-70
2022/10/07 09:50:46;;;;;;;;;;;;;;;17.13;72.89;101311.94;5030119;28;2068;-69
2022/10/07 09:53:25;;;;;;;;;;;;;;;17.21;72.98;101304.88;5034545;28;1812;-69
2022/10/07 09:55:51;;;;;;;;;;;;;;;17.26;72.55;101300.06;5029500;28;2021;-69
2022/10/07 09:58:26;;;;;;;;;;;;;;;17.32;72.69;101286.97;5031241;28;1653;-70
2022/10/07 10:00:52;;;;;;;;;;;;;;;17.37;72.29;101289.59;5033963;28;1400;-70
2022/10/07 10:03:18;;;;;;;;;;;;;;;17.39;72.40;101282.66;5035474;28;1455;-70
2022/10/07 10:05:51;;;;;;;;;;;;;;;17.44;72.35;101290.00;5030744;28;2368;-70
2022/10/07 10:08:16;;;;;;;;;;;;;;;17.44;72.11;101281.72;5032007;28;2060;-69
2022/10/07 10:10:48;;;;;;;;;;;;;;;17.44;71.83;101281.72;5032105;28;1896;-71
2022/10/07 10:13:23;;;;;;;;;;;;;;;17.44;72.27;101281.72;5029737;28;1934;-71
2022/10/07 10:15:48;;;;;;;;;;;;;;;17.45;71.96;101279.78;5033973;28;1963;-71
2022/10/07 10:18:27;;;;;;;;;;;;;;;17.44;72.31;101272.63;5027556;28;1787;-71
2022/10/07 10:20:53;;;;;;;;;;;;;;;17.42;72.77;101270.16;5030348;28;1990;-71
2022/10/07 10:23:24;;;;;;;;;;;;;;;17.43;73.06;101265.44;5032406;28;2032;-71
2022/10/07 10:26:26;;;;;;;;;;;;;;;17.42;73.03;101258.25;5032152;28;1996;-71
2022/10/07 10:29:00;;;;;;;;;;;;;;;17.40;72.74;101251.09;5024979;28;2022;-70
2022/10/07 10:31:34;;;;;;;;;;;;;;;17.39;73.63;101243.91;5028677;28;1946;-71
2022/10/07 10:33:59;;;;;;;;;;;;;;;17.37;73.83;101237.84;5031662;28;1988;-69
2022/10/07 10:36:26;;;;;;;;;;;;;;;17.37;73.62;101245.34;5033848;28;1437;-70
2022/10/07 10:39:00;;;;;;;;;;;;;;;17.35;73.84;101231.00;5030996;28;1990;-71
2022/10/07 10:41:25;;;;;;;;;;;;;;;17.36;74.41;101229.84;5030251;28;1959;-70
2022/10/07 10:43:50;;;;;;;;;;;;;;;17.36;73.79;101221.56;5023263;28;1508;-70
2022/10/07 10:46:21;;;;;;;;;;;;;;;17.35;73.70;101219.94;5019563;28;1668;-71
2022/10/07 10:48:54;;;;;;;;;;;;;;;17.31;74.58;101213.38;5031281;28;2102;-73
2022/10/07 10:51:28;;;;;;;;;;;;;;;17.32;74.12;101206.72;5027315;28;2100;-64
2022/10/07 10:54:12;;;;;;;;;;;;;;;17.35;73.40;101208.88;5032828;28;1898;-64
2022/10/07 10:56:43;;;;;;;;;;;;;;;17.27;74.31;101204.03;5022826;28;1698;-64
2022/10/07 10:59:11;;;;;;;;;;;;;;;17.21;74.33;101196.97;5026211;28;1824;-65
2022/10/07 11:01:40;;;;;;;;;;;;;;;17.14;73.68;101191.03;5023954;28;1792;-64
2022/10/07 11:04:12;;;;;;;;;;;;;;;17.07;74.82;101190.63;5025284;28;1531;-64
2022/10/07 11:06:40;;;;;;;;;;;;;;;17.02;75.02;101186.81;5026316;28;2036;-64
2022/10/07 11:09:14;;;;;;;;;;;;;;;17.00;74.27;101182.75;5028692;28;1980;-65
2022/10/07 11:11:40;;;;;;;;;;;;;;;17.01;74.59;101176.09;5030574;28;1735;-64
2022/10/07 11:14:11;;;;;;;;;;;;;;;16.99;74.25;101170.84;5029029;28;2226;-65
2022/10/07 11:16:38;;;;;;;;;;;;;;;17.00;74.50;101163.38;5025298;28;1974;-64
2022/10/07 11:19:15;;;;;;;;;;;;;;;17.00;75.12;101161.44;5031614;28;1810;-65
2022/10/07 11:21:43;;;;;;;;;;;;;;;16.98;75.16;101147.09;5029931;28;1957;-64
2022/10/07 11:24:09;;;;;;;;;;;;;;;16.99;74.98;101150.69;5029887;28;2004;-65
2022/10/07 11:26:34;;;;;;;;;;;;;;;16.98;74.92;101152.63;5026053;28;1732;-63
2022/10/07 11:29:03;;;;;;;;;;;;;;;16.98;75.46;101138.78;5031792;28;1784;-63
2022/10/07 11:31:32;;;;;;;;;;;;;;;16.98;75.01;101127.72;5027083;28;1959;-63
2022/10/07 11:34:12;;;;;;;;;;;;;;;16.99;75.80;101129.38;5023099;28;1959;-63
2022/10/07 11:36:55;;;;;;;;;;;;;;;17.01;75.10;101123.53;5030615;28;1260;-63
2022/10/07 11:39:22;;;;;;;;;;;;;;;17.02;75.08;101116.84;5014029;28;1217;-62
2022/10/07 11:41:56;;;;;;;;;;;;;;;17.05;75.59;101112.66;5014244;28;873;-62
2022/10/07 11:44:26;;;;;;;;;;;;;;;17.08;75.31;101103.75;5030736;28;864;-62
2022/10/07 11:46:52;;;;;;;;;;;;;;;17.12;74.69;101088.97;5028859;28;2154;-62
2022/10/07 11:49:20;;;;;;;;;;;;;;;17.16;75.62;101089.19;5024327;28;1607;-63
2022/10/07 11:51:54;;;;;;;;;;;;;;;17.20;75.97;101084.66;5014099;28;1676;-65
2022/10/07 11:54:22;;;;;;;;;;;;;;;17.24;74.88;101074.63;5033491;28;1894;-65
2022/10/07 11:56:51;;;;;;;;;;;;;;;17.28;75.06;101078.38;5033319;28;971;-63
2022/10/07 11:59:28;;;;;;;;;;;;;;;17.31;74.91;101073.06;5032318;28;2219;-64
2022/10/07 12:01:53;;;;;;;;;;;;;;;17.36;75.71;101058.28;5013799;28;856;-65
2022/10/07 12:04:21;;;;;;;;;;;;;;;17.40;75.45;101053.78;5016972;28;1659;-65
2022/10/07 12:07:05;;;;;;;;;;;;;;;17.42;74.82;101051.50;5033302;28;1433;-64
2022/10/07 12:09:49;;;;;;;;;;;;;;;17.46;75.67;101038.66;5031367;28;2176;-64
2022/10/07 12:12:14;;;;;;;;;;;;;;;17.48;75.63;101033.66;5024412;28;1899;-62
2022/10/07 12:14:40;;;;;;;;;;;;;;;17.49;74.41;101032.53;5031154;28;1975;-63
2022/10/07 12:17:19;;;;;;;;;;;;;;;17.51;74.67;101019.19;5019387;28;1037;-63
2022/10/07 12:19:45;;;;;;;;;;;;;;;17.52;74.36;101020.00;5033176;28;1217;-64
2022/10/07 12:22:10;;;;;;;;;;;;;;;17.53;74.82;101010.56;5032489;28;2288;-64
2022/10/07 12:24:36;;;;;;;;;;;;;;;17.52;73.92;101007.00;5024301;28;1875;-64
2022/10/07 12:27:10;;;;;;;;;;;;;;;17.53;75.00;101000.28;5025447;28;1630;-63
2022/10/07 12:29:47;;;;;;;;;;;;;;;17.55;74.15;101008.28;5013397;28;1301;-65
2022/10/07 12:32:31;;;;;;;;;;;;;;;17.53;74.42;100997.53;5026495;28;1798;-63
2022/10/07 12:35:16;;;;;;;;;;;;;;;17.52;73.63;101009.75;5028442;28;1953;-65
2022/10/07 12:37:44;;;;;;;;;;;;;;;17.48;73.64;100991.31;5030604;28;2015;-65
2022/10/07 12:40:13;;;;;;;;;;;;;;;17.46;74.03;100999.09;5029786;28;2395;-65
2022/10/07 12:42:44;;;;;;;;;;;;;;;17.47;73.73;100984.97;5023783;28;1910;-63
2022/10/07 12:45:10;;;;;;;;;;;;;;;17.50;74.74;100994.59;5032024;28;1891;-62
2022/10/07 12:47:35;;;;;;;;;;;;;;;17.52;73.81;100976.53;5023017;28;1838;-64
2022/10/07 12:50:03;;;;;;;;;;;;;;;17.56;75.11;100991.38;5031111;28;1943;-63
2022/10/07 12:52:40;;;;;;;;;;;;;;;17.58;73.81;100974.47;5030750;28;2091;-65
2022/10/07 12:55:13;;;;;;;;;;;;;;;17.58;74.13;100969.75;5023828;28;1961;-63
2022/10/07 12:57:41;;;;;;;;;;;;;;;17.59;73.90;100968.59;5021978;28;1609;-65
2022/10/07 13:00:12;;;;;;;;;;;;;;;17.59;73.85;100959.47;5029262;28;1951;-65